sensor_id;sensor_type;location;lat;lon;timestamp;pressure;altitude;pressure_sealevel;temperature;humidity
10946;BME280;5525;42.648;23.368;2023-02-12T00:00:48;95615.66;;;1.18;50.42
10946;BME280;5525;42.648;23.368;2023-02-12T00:03:16;95629.06;;;1.23;50.25
10946;BME280;5525;42.648;23.368;2023-02-12T00:05:42;95604.44;;;1.16;50.67
10946;BME280;5525;42.648;23.368;2023-02-12T00:08:09;95601.16;;;1.09;50.36
10946;BME280;5525;42.648;23.368;2023-02-12T00:10:39;95629.53;;;1.20;50.75
10946;BME280;5525;42.648;23.368;2023-02-12T00:13:06;95626.88;;;1.20;50.58
10946;BME280;5525;42.648;23.368;2023-02-12T00:15:32;95632.50;;;1.23;50.58
10946;BME280;5525;42.648;23.368;2023-02-12T00:18:01;95609.78;;;1.16;50.69
10946;BME280;5525;42.648;23.368;2023-02-12T00:20:27;95614.06;;;1.17;50.34
10946;BME280;5525;42.648;23.368;2023-02-12T00:22:54;95613.97;;;1.12;49.76
10946;BME280;5525;42.648;23.368;2023-02-12T00:25:21;95608.91;;;1.10;50.10
10946;BME280;5525;42.648;23.368;2023-02-12T00:27:47;95616.63;;;1.28;49.28
10946;BME280;5525;42.648;23.368;2023-02-12T00:30:15;95623.72;;;1.23;49.82
10946;BME280;5525;42.648;23.368;2023-02-12T00:32:41;95620.97;;;1.18;49.90
10946;BME280;5525;42.648;23.368;2023-02-12T00:35:11;95615.97;;;1.05;49.97
10946;BME280;5525;42.648;23.368;2023-02-12T00:37:38;95615.19;;;1.21;49.61
10946;BME280;5525;42.648;23.368;2023-02-12T00:40:06;95602.94;;;1.20;49.58
10946;BME280;5525;42.648;23.368;2023-02-12T00:42:33;95609.38;;;1.24;49.54
10946;BME280;5525;42.648;23.368;2023-02-12T00:45:00;95607.19;;;1.21;49.49
10946;BME280;5525;42.648;23.368;2023-02-12T00:47:26;95608.16;;;1.15;49.83
10946;BME280;5525;42.648;23.368;2023-02-12T00:49:53;95578.34;;;0.80;50.08
10946;BME280;5525;42.648;23.368;2023-02-12T00:52:21;95609.63;;;1.06;50.37
10946;BME280;5525;42.648;23.368;2023-02-12T00:54:48;95583.72;;;0.85;50.84
10946;BME280;5525;42.648;23.368;2023-02-12T00:57:15;95590.03;;;0.95;50.37
10946;BME280;5525;42.648;23.368;2023-02-12T00:59:42;95570.78;;;0.88;50.46
10946;BME280;5525;42.648;23.368;2023-02-12T01:02:08;95593.00;;;0.99;50.32
10946;BME280;5525;42.648;23.368;2023-02-12T01:04:35;95585.38;;;1.02;50.20
10946;BME280;5525;42.648;23.368;2023-02-12T01:07:02;95578.97;;;1.03;49.76
10946;BME280;5525;42.648;23.368;2023-02-12T01:09:30;95590.66;;;1.19;49.46
10946;BME280;5525;42.648;23.368;2023-02-12T01:11:56;95569.50;;;1.07;49.34
10946;BME280;5525;42.648;23.368;2023-02-12T01:14:23;95573.19;;;1.23;49.59
10946;BME280;5525;42.648;23.368;2023-02-12T01:16:50;95597.44;;;1.26;49.54
10946;BME280;5525;42.648;23.368;2023-02-12T01:19:17;95597.28;;;1.33;49.83
10946;BME280;5525;42.648;23.368;2023-02-12T01:21:44;95580.69;;;1.26;50.13
10946;BME280;5525;42.648;23.368;2023-02-12T01:24:11;95580.19;;;1.29;49.25
10946;BME280;5525;42.648;23.368;2023-02-12T01:26:39;95602.75;;;1.43;49.38
10946;BME280;5525;42.648;23.368;2023-02-12T01:29:06;95610.75;;;1.43;49.79
10946;BME280;5525;42.648;23.368;2023-02-12T01:31:36;95605.72;;;1.46;49.61
10946;BME280;5525;42.648;23.368;2023-02-12T01:34:04;95601.38;;;1.40;49.98
10946;BME280;5525;42.648;23.368;2023-02-12T01:36:31;95601.84;;;1.37;50.24
10946;BME280;5525;42.648;23.368;2023-02-12T01:38:59;95598.72;;;1.40;50.03
10946;BME280;5525;42.648;23.368;2023-02-12T01:41:30;95593.13;;;1.42;49.92
10946;BME280;5525;42.648;23.368;2023-02-12T01:44:16;95577.09;;;1.37;50.06
10946;BME280;5525;42.648;23.368;2023-02-12T01:46:45;95581.88;;;1.35;50.31
10946;BME280;5525;42.648;23.368;2023-02-12T01:49:17;95573.16;;;1.39;50.71
10946;BME280;5525;42.648;23.368;2023-02-12T01:51:49;95567.84;;;1.39;50.65
10946;BME280;5525;42.648;23.368;2023-02-12T01:54:19;95558.91;;;1.29;50.78
10946;BME280;5525;42.648;23.368;2023-02-12T01:56:47;95549.72;;;1.36;50.30
10946;BME280;5525;42.648;23.368;2023-02-12T01:59:17;95526.66;;;1.25;50.95
10946;BME280;5525;42.648;23.368;2023-02-12T02:01:45;95543.50;;;1.31;50.96
10946;BME280;5525;42.648;23.368;2023-02-12T02:04:14;95518.97;;;1.07;50.86
10946;BME280;5525;42.648;23.368;2023-02-12T02:06:47;95554.63;;;1.28;50.79
10946;BME280;5525;42.648;23.368;2023-02-12T02:09:15;95559.44;;;1.31;50.60
10946;BME280;5525;42.648;23.368;2023-02-12T02:11:42;95560.50;;;1.30;51.05
10946;BME280;5525;42.648;23.368;2023-02-12T02:14:28;95560.44;;;1.25;51.68
10946;BME280;5525;42.648;23.368;2023-02-12T02:17:06;95563.81;;;1.20;51.65
10946;BME280;5525;42.648;23.368;2023-02-12T02:19:49;95563.34;;;1.07;53.16
10946;BME280;5525;42.648;23.368;2023-02-12T02:22:30;95552.88;;;0.84;53.81
10946;BME280;5525;42.648;23.368;2023-02-12T02:25:25;95556.91;;;0.70;54.57
10946;BME280;5525;42.648;23.368;2023-02-12T02:28:05;95550.00;;;0.69;55.04
10946;BME280;5525;42.648;23.368;2023-02-12T02:30:42;95509.69;;;0.27;55.56
10946;BME280;5525;42.648;23.368;2023-02-12T02:33:23;95557.38;;;0.50;56.46
10946;BME280;5525;42.648;23.368;2023-02-12T02:35:54;95557.75;;;0.42;57.25
10946;BME280;5525;42.648;23.368;2023-02-12T02:38:32;95551.97;;;0.45;57.17
10946;BME280;5525;42.648;23.368;2023-02-12T02:41:05;95562.78;;;0.72;56.26
10946;BME280;5525;42.648;23.368;2023-02-12T02:43:35;95559.91;;;0.73;56.14
10946;BME280;5525;42.648;23.368;2023-02-12T02:46:08;95563.53;;;0.84;55.70
10946;BME280;5525;42.648;23.368;2023-02-12T02:48:37;95575.38;;;0.93;55.21
10946;BME280;5525;42.648;23.368;2023-02-12T02:51:12;95584.78;;;1.00;55.32
10946;BME280;5525;42.648;23.368;2023-02-12T02:53:44;95568.44;;;0.92;55.73
10946;BME280;5525;42.648;23.368;2023-02-12T02:56:15;95571.97;;;0.97;55.32
10946;BME280;5525;42.648;23.368;2023-02-12T02:58:45;95574.16;;;1.00;55.89
10946;BME280;5525;42.648;23.368;2023-02-12T03:01:17;95578.66;;;1.16;55.75
10946;BME280;5525;42.648;23.368;2023-02-12T03:03:49;95587.75;;;1.20;55.54
10946;BME280;5525;42.648;23.368;2023-02-12T03:06:21;95587.53;;;1.05;56.28
10946;BME280;5525;42.648;23.368;2023-02-12T03:08:55;95580.38;;;1.06;56.57
10946;BME280;5525;42.648;23.368;2023-02-12T03:11:25;95581.84;;;0.97;57.65
10946;BME280;5525;42.648;23.368;2023-02-12T03:13:56;95566.50;;;1.04;57.23
10946;BME280;5525;42.648;23.368;2023-02-12T03:16:27;95570.28;;;1.24;56.89
10946;BME280;5525;42.648;23.368;2023-02-12T03:19:01;95580.44;;;1.27;57.01
10946;BME280;5525;42.648;23.368;2023-02-12T03:21:34;95569.31;;;1.14;57.33
10946;BME280;5525;42.648;23.368;2023-02-12T03:24:09;95559.16;;;1.27;56.54
10946;BME280;5525;42.648;23.368;2023-02-12T03:26:42;95578.16;;;1.36;57.05
10946;BME280;5525;42.648;23.368;2023-02-12T03:29:11;95565.53;;;1.10;58.06
10946;BME280;5525;42.648;23.368;2023-02-12T03:31:50;95564.63;;;1.21;57.99
10946;BME280;5525;42.648;23.368;2023-02-12T03:34:24;95569.31;;;1.14;58.70
10946;BME280;5525;42.648;23.368;2023-02-12T03:36:57;95564.97;;;1.08;59.17
10946;BME280;5525;42.648;23.368;2023-02-12T03:39:37;95569.50;;;1.07;59.74
10946;BME280;5525;42.648;23.368;2023-02-12T03:42:10;95549.41;;;1.16;59.38
10946;BME280;5525;42.648;23.368;2023-02-12T03:44:47;95552.66;;;1.18;59.05
10946;BME280;5525;42.648;23.368;2023-02-12T03:47:22;95552.66;;;1.18;58.62
10946;BME280;5525;42.648;23.368;2023-02-12T03:49:56;95530.25;;;0.98;59.39
10946;BME280;5525;42.648;23.368;2023-02-12T03:52:24;95552.41;;;1.20;59.79
10946;BME280;5525;42.648;23.368;2023-02-12T03:54:51;95564.63;;;1.21;60.37
10946;BME280;5525;42.648;23.368;2023-02-12T03:57:20;95553.41;;;1.35;60.10
10946;BME280;5525;42.648;23.368;2023-02-12T03:59:49;95561.28;;;1.09;60.76
10946;BME280;5525;42.648;23.368;2023-02-12T04:02:19;95556.69;;;1.04;61.69
10946;BME280;5525;42.648;23.368;2023-02-12T04:04:46;95543.88;;;1.01;61.44
10946;BME280;5525;42.648;23.368;2023-02-12T04:07:14;95549.44;;;1.00;61.48
10946;BME280;5525;42.648;23.368;2023-02-12T04:09:42;95556.94;;;1.03;61.42
10946;BME280;5525;42.648;23.368;2023-02-12T04:12:19;95553.84;;;0.94;61.51
10946;BME280;5525;42.648;23.368;2023-02-12T04:14:54;95561.31;;;1.14;61.93
10946;BME280;5525;42.648;23.368;2023-02-12T04:17:43;95543.31;;;0.99;61.49
10946;BME280;5525;42.648;23.368;2023-02-12T04:20:19;95564.72;;;1.09;61.85
10946;BME280;5525;42.648;23.368;2023-02-12T04:22:54;95565.53;;;1.10;62.18
10946;BME280;5525;42.648;23.368;2023-02-12T04:25:34;95579.16;;;1.13;62.50
10946;BME280;5525;42.648;23.368;2023-02-12T04:28:12;95577.38;;;1.02;62.66
10946;BME280;5525;42.648;23.368;2023-02-12T04:30:46;95575.75;;;1.18;62.80
10946;BME280;5525;42.648;23.368;2023-02-12T04:33:18;95570.13;;;0.98;62.96
10946;BME280;5525;42.648;23.368;2023-02-12T04:35:49;95573.59;;;0.82;63.95
10946;BME280;5525;42.648;23.368;2023-02-12T04:38:20;95576.19;;;0.93;64.60
10946;BME280;5525;42.648;23.368;2023-02-12T04:40:49;95562.66;;;0.78;64.94
10946;BME280;5525;42.648;23.368;2023-02-12T04:43:26;95571.97;;;0.97;64.37
10946;BME280;5525;42.648;23.368;2023-02-12T04:45:53;95584.53;;;1.02;64.00
10946;BME280;5525;42.648;23.368;2023-02-12T04:48:21;95567.06;;;0.73;64.98
10946;BME280;5525;42.648;23.368;2023-02-12T04:50:48;95580.81;;;0.70;65.80
10946;BME280;5525;42.648;23.368;2023-02-12T04:53:15;95589.22;;;0.95;65.21
10946;BME280;5525;42.648;23.368;2023-02-12T04:55:42;95592.28;;;1.03;64.61
10946;BME280;5525;42.648;23.368;2023-02-12T04:58:09;95596.63;;;1.09;64.69
10946;BME280;5525;42.648;23.368;2023-02-12T05:00:35;95592.03;;;1.05;65.15
10946;BME280;5525;42.648;23.368;2023-02-12T05:03:03;95588.91;;;1.08;64.56
10946;BME280;5525;42.648;23.368;2023-02-12T05:05:31;95587.13;;;1.13;64.03
10946;BME280;5525;42.648;23.368;2023-02-12T05:07:58;95584.16;;;0.93;65.13
10946;BME280;5525;42.648;23.368;2023-02-12T05:10:25;95588.91;;;1.08;64.96
10946;BME280;5525;42.648;23.368;2023-02-12T05:12:52;95573.38;;;1.00;64.64
10946;BME280;5525;42.648;23.368;2023-02-12T05:15:19;95599.63;;;0.96;64.95
10946;BME280;5525;42.648;23.368;2023-02-12T05:17:46;95588.16;;;0.96;65.11
10946;BME280;5525;42.648;23.368;2023-02-12T05:20:13;95593.91;;;1.04;64.60
10946;BME280;5525;42.648;23.368;2023-02-12T05:22:41;95592.38;;;1.08;64.76
10946;BME280;5525;42.648;23.368;2023-02-12T05:25:08;95580.63;;;1.04;64.38
10946;BME280;5525;42.648;23.368;2023-02-12T05:27:34;95603.88;;;1.14;64.90
10946;BME280;5525;42.648;23.368;2023-02-12T05:30:01;95616.94;;;1.15;66.42
10946;BME280;5525;42.648;23.368;2023-02-12T05:32:29;95605.03;;;1.01;70.57
10946;BME280;5525;42.648;23.368;2023-02-12T05:34:56;95634.09;;;1.08;73.31
10946;BME280;5525;42.648;23.368;2023-02-12T05:37:23;95623.66;;;1.01;72.88
10946;BME280;5525;42.648;23.368;2023-02-12T05:39:51;95630.66;;;1.07;72.70
10946;BME280;5525;42.648;23.368;2023-02-12T05:42:18;95604.94;;;0.96;73.42
10946;BME280;5525;42.648;23.368;2023-02-12T05:44:45;95635.88;;;1.02;75.72
10946;BME280;5525;42.648;23.368;2023-02-12T05:47:12;95584.63;;;0.74;75.76
10946;BME280;5525;42.648;23.368;2023-02-12T05:49:38;95635.00;;;1.13;76.18
10946;BME280;5525;42.648;23.368;2023-02-12T05:52:05;95645.31;;;1.10;76.32
10946;BME280;5525;42.648;23.368;2023-02-12T05:54:32;95623.69;;;0.90;78.81
10946;BME280;5525;42.648;23.368;2023-02-12T05:57:00;95628.28;;;0.94;81.26
10946;BME280;5525;42.648;23.368;2023-02-12T05:59:27;95639.91;;;0.88;83.98
10946;BME280;5525;42.648;23.368;2023-02-12T06:01:53;95642.56;;;0.88;86.87
10946;BME280;5525;42.648;23.368;2023-02-12T06:04:22;95647.16;;;0.93;87.02
10946;BME280;5525;42.648;23.368;2023-02-12T06:06:49;95639.06;;;0.88;87.83
10946;BME280;5525;42.648;23.368;2023-02-12T06:09:16;95642.88;;;0.92;89.11
10946;BME280;5525;42.648;23.368;2023-02-12T06:11:43;95651.97;;;0.96;91.12
10946;BME280;5525;42.648;23.368;2023-02-12T06:14:14;95654.75;;;1.01;91.72
10946;BME280;5525;42.648;23.368;2023-02-12T06:16:43;95661.91;;;1.00;93.16
10946;BME280;5525;42.648;23.368;2023-02-12T06:19:11;95665.22;;;1.07;96.21
10946;BME280;5525;42.648;23.368;2023-02-12T06:21:38;95651.19;;;0.95;99.28
10946;BME280;5525;42.648;23.368;2023-02-12T06:24:05;95656.28;;;0.97;100.00
10946;BME280;5525;42.648;23.368;2023-02-12T06:26:32;95637.06;;;0.78;100.00
10946;BME280;5525;42.648;23.368;2023-02-12T06:28:59;95649.78;;;0.76;100.00
10946;BME280;5525;42.648;23.368;2023-02-12T06:31:29;95664.06;;;0.87;100.00
10946;BME280;5525;42.648;23.368;2023-02-12T06:33:58;95671.91;;;0.93;100.00
10946;BME280;5525;42.648;23.368;2023-02-12T06:36:26;95643.28;;;0.84;100.00
10946;BME280;5525;42.648;23.368;2023-02-12T06:38:53;95662.53;;;0.91;100.00
10946;BME280;5525;42.648;23.368;2023-02-12T06:41:20;95674.22;;;0.90;100.00
10946;BME280;5525;42.648;23.368;2023-02-12T06:43:48;95662.38;;;0.81;100.00
10946;BME280;5525;42.648;23.368;2023-02-12T06:46:15;95648.19;;;0.75;100.00
10946;BME280;5525;42.648;23.368;2023-02-12T06:48:43;95666.63;;;0.82;100.00
10946;BME280;5525;42.648;23.368;2023-02-12T06:51:11;95649.06;;;0.81;100.00
10946;BME280;5525;42.648;23.368;2023-02-12T06:53:39;95657.63;;;0.83;100.00
10946;BME280;5525;42.648;23.368;2023-02-12T06:56:08;95653.03;;;0.78;100.00
10946;BME280;5525;42.648;23.368;2023-02-12T06:58:36;95658.66;;;0.82;100.00
10946;BME280;5525;42.648;23.368;2023-02-12T07:01:10;95673.94;;;0.75;100.00
10946;BME280;5525;42.648;23.368;2023-02-12T07:03:38;95673.22;;;0.79;100.00
10946;BME280;5525;42.648;23.368;2023-02-12T07:06:08;95677.31;;;0.70;100.00
10946;BME280;5525;42.648;23.368;2023-02-12T07:08:35;95671.88;;;0.77;100.00
10946;BME280;5525;42.648;23.368;2023-02-12T07:11:02;95658.13;;;0.68;100.00
10946;BME280;5525;42.648;23.368;2023-02-12T07:13:29;95659.59;;;0.76;100.00
10946;BME280;5525;42.648;23.368;2023-02-12T07:15:55;95682.66;;;0.87;100.00
10946;BME280;5525;42.648;23.368;2023-02-12T07:18:22;95681.84;;;0.86;100.00
10946;BME280;5525;42.648;23.368;2023-02-12T07:20:49;95654.53;;;0.74;100.00
10946;BME280;5525;42.648;23.368;2023-02-12T07:23:17;95672.50;;;0.84;100.00
10946;BME280;5525;42.648;23.368;2023-02-12T07:25:53;95667.78;;;0.86;100.00
10946;BME280;5525;42.648;23.368;2023-02-12T07:28:20;95627.53;;;0.66;100.00
10946;BME280;5525;42.648;23.368;2023-02-12T07:30:47;95655.28;;;0.86;100.00
10946;BME280;5525;42.648;23.368;2023-02-12T07:33:13;95622.88;;;0.73;100.00
10946;BME280;5525;42.648;23.368;2023-02-12T07:35:40;95659.97;;;0.96;100.00
10946;BME280;5525;42.648;23.368;2023-02-12T07:38:07;95691.00;;;1.07;100.00
10946;BME280;5525;42.648;23.368;2023-02-12T07:40:35;95686.66;;;1.01;100.00
10946;BME280;5525;42.648;23.368;2023-02-12T07:43:02;95671.56;;;0.90;100.00
10946;BME280;5525;42.648;23.368;2023-02-12T07:45:29;95669.00;;;0.95;100.00
10946;BME280;5525;42.648;23.368;2023-02-12T07:47:55;95698.47;;;0.93;100.00
10946;BME280;5525;42.648;23.368;2023-02-12T07:50:22;95701.03;;;0.88;100.00
10946;BME280;5525;42.648;23.368;2023-02-12T07:52:50;95684.34;;;0.76;100.00
10946;BME280;5525;42.648;23.368;2023-02-12T07:55:16;95696.53;;;0.89;100.00
10946;BME280;5525;42.648;23.368;2023-02-12T07:57:45;95695.72;;;0.88;100.00
10946;BME280;5525;42.648;23.368;2023-02-12T08:00:13;95681.81;;;0.70;100.00
10946;BME280;5525;42.648;23.368;2023-02-12T08:02:40;95698.00;;;0.96;100.00
10946;BME280;5525;42.648;23.368;2023-02-12T08:05:07;95687.28;;;0.91;100.00
10946;BME280;5525;42.648;23.368;2023-02-12T08:07:34;95704.41;;;0.84;100.00
10946;BME280;5525;42.648;23.368;2023-02-12T08:10:00;95704.19;;;0.85;100.00
10946;BME280;5525;42.648;23.368;2023-02-12T08:12:27;95693.06;;;0.88;100.00
10946;BME280;5525;42.648;23.368;2023-02-12T08:14:55;95699.34;;;0.82;100.00
10946;BME280;5525;42.648;23.368;2023-02-12T08:17:22;95699.19;;;0.89;100.00
10946;BME280;5525;42.648;23.368;2023-02-12T08:19:49;95697.66;;;0.93;100.00
10946;BME280;5525;42.648;23.368;2023-02-12T08:22:16;95704.28;;;0.90;100.00
10946;BME280;5525;42.648;23.368;2023-02-12T08:24:43;95710.06;;;0.87;100.00
10946;BME280;5525;42.648;23.368;2023-02-12T08:27:10;95720.97;;;0.74;100.00
10946;BME280;5525;42.648;23.368;2023-02-12T08:29:36;95717.00;;;0.88;100.00
10946;BME280;5525;42.648;23.368;2023-02-12T08:32:05;95724.56;;;0.80;100.00
10946;BME280;5525;42.648;23.368;2023-02-12T08:34:34;95702.50;;;0.68;100.00
10946;BME280;5525;42.648;23.368;2023-02-12T08:37:04;95722.91;;;0.79;100.00
10946;BME280;5525;42.648;23.368;2023-02-12T08:39:31;95728.69;;;0.87;100.00
10946;BME280;5525;42.648;23.368;2023-02-12T08:41:59;95733.28;;;0.92;100.00
10946;BME280;5525;42.648;23.368;2023-02-12T08:44:26;95729.19;;;1.01;100.00
10946;BME280;5525;42.648;23.368;2023-02-12T08:46:53;95733.16;;;0.98;100.00
10946;BME280;5525;42.648;23.368;2023-02-12T08:49:24;95732.84;;;1.11;100.00
10946;BME280;5525;42.648;23.368;2023-02-12T08:51:52;95738.50;;;1.15;100.00
10946;BME280;5525;42.648;23.368;2023-02-12T08:54:21;95737.44;;;1.16;100.00
10946;BME280;5525;42.648;23.368;2023-02-12T08:56:48;95747.13;;;1.38;100.00
10946;BME280;5525;42.648;23.368;2023-02-12T08:59:16;95753.28;;;1.39;100.00
10946;BME280;5525;42.648;23.368;2023-02-12T09:01:43;95755.69;;;1.40;100.00
10946;BME280;5525;42.648;23.368;2023-02-12T09:04:13;95753.91;;;1.29;100.00
10946;BME280;5525;42.648;23.368;2023-02-12T09:06:44;95751.19;;;1.24;100.00
10946;BME280;5525;42.648;23.368;2023-02-12T09:09:11;95749.22;;;1.20;100.00
10946;BME280;5525;42.648;23.368;2023-02-12T09:11:39;95746.94;;;1.12;100.00
10946;BME280;5525;42.648;23.368;2023-02-12T09:14:09;95757.72;;;1.05;100.00
10946;BME280;5525;42.648;23.368;2023-02-12T09:16:36;95744.88;;;0.86;100.00
10946;BME280;5525;42.648;23.368;2023-02-12T09:19:03;95759.34;;;1.06;100.00
10946;BME280;5525;42.648;23.368;2023-02-12T09:21:30;95771.78;;;1.17;100.00
10946;BME280;5525;42.648;23.368;2023-02-12T09:24:00;95768.97;;;1.24;100.00
10946;BME280;5525;42.648;23.368;2023-02-12T09:26:28;95773.34;;;1.30;100.00
10946;BME280;5525;42.648;23.368;2023-02-12T09:28:55;95768.53;;;1.15;100.00
10946;BME280;5525;42.648;23.368;2023-02-12T09:31:23;95766.31;;;1.24;100.00
10946;BME280;5525;42.648;23.368;2023-02-12T09:33:52;95778.09;;;1.28;100.00
10946;BME280;5525;42.648;23.368;2023-02-12T09:36:19;95773.72;;;1.22;100.00
10946;BME280;5525;42.648;23.368;2023-02-12T09:38:46;95772.00;;;1.44;100.00
10946;BME280;5525;42.648;23.368;2023-02-12T09:41:35;95779.06;;;1.38;100.00
10946;BME280;5525;42.648;23.368;2023-02-12T09:44:10;95771.81;;;1.34;100.00
10946;BME280;5525;42.648;23.368;2023-02-12T09:46:46;95770.06;;;1.39;100.00
10946;BME280;5525;42.648;23.368;2023-02-12T09:49:37;95765.59;;;1.28;100.00
10946;BME280;5525;42.648;23.368;2023-02-12T09:52:13;95772.88;;;1.49;100.00
10946;BME280;5525;42.648;23.368;2023-02-12T09:54:42;95779.50;;;1.80;100.00
10946;BME280;5525;42.648;23.368;2023-02-12T09:57:16;95774.28;;;1.85;100.00
10946;BME280;5525;42.648;23.368;2023-02-12T09:59:50;95776.53;;;1.77;100.00
10946;BME280;5525;42.648;23.368;2023-02-12T10:02:19;95781.63;;;1.78;100.00
10946;BME280;5525;42.648;23.368;2023-02-12T10:04:48;95772.50;;;1.91;100.00
10946;BME280;5525;42.648;23.368;2023-02-12T10:07:26;95780.25;;;1.92;100.00
10946;BME280;5525;42.648;23.368;2023-02-12T10:10:09;95775.91;;;2.03;100.00
10946;BME280;5525;42.648;23.368;2023-02-12T10:12:49;95767.75;;;2.31;100.00
10946;BME280;5525;42.648;23.368;2023-02-12T10:15:30;95760.94;;;2.78;100.00
10946;BME280;5525;42.648;23.368;2023-02-12T10:18:13;95775.00;;;2.95;100.00
10946;BME280;5525;42.648;23.368;2023-02-12T10:20:51;95779.31;;;3.22;100.00
10946;BME280;5525;42.648;23.368;2023-02-12T10:26:18;95769.03;;;3.36;100.00
10946;BME280;5525;42.648;23.368;2023-02-12T10:28:51;95784.38;;;2.97;100.00
10946;BME280;5525;42.648;23.368;2023-02-12T10:31:24;95780.19;;;3.06;100.00
10946;BME280;5525;42.648;23.368;2023-02-12T10:33:53;95775.69;;;2.85;100.00
10946;BME280;5525;42.648;23.368;2023-02-12T10:36:31;95794.47;;;2.95;100.00
10946;BME280;5525;42.648;23.368;2023-02-12T10:39:03;95778.97;;;2.92;100.00
10946;BME280;5525;42.648;23.368;2023-02-12T10:41:37;95779.78;;;2.93;100.00
10946;BME280;5525;42.648;23.368;2023-02-12T10:44:09;95788.53;;;2.88;100.00
10946;BME280;5525;42.648;23.368;2023-02-12T10:46:37;95787.28;;;2.96;100.00
10946;BME280;5525;42.648;23.368;2023-02-12T10:49:05;95788.59;;;2.93;100.00
10946;BME280;5525;42.648;23.368;2023-02-12T10:51:40;95783.19;;;2.88;100.00
10946;BME280;5525;42.648;23.368;2023-02-12T10:54:30;95795.34;;;3.01;100.00
10946;BME280;5525;42.648;23.368;2023-02-12T10:56:58;95790.88;;;2.63;100.00
10946;BME280;5525;42.648;23.368;2023-02-12T10:59:28;95794.34;;;2.64;100.00
10946;BME280;5525;42.648;23.368;2023-02-12T11:01:54;95795.44;;;2.68;100.00
10946;BME280;5525;42.648;23.368;2023-02-12T11:04:25;95784.44;;;2.81;100.00
10946;BME280;5525;42.648;23.368;2023-02-12T11:06:57;95793.91;;;3.15;100.00
10946;BME280;5525;42.648;23.368;2023-02-12T11:09:28;95791.75;;;3.12;100.00
10946;BME280;5525;42.648;23.368;2023-02-12T11:11:56;95784.91;;;3.47;100.00
10946;BME280;5525;42.648;23.368;2023-02-12T11:14:23;95779.59;;;3.79;100.00
10946;BME280;5525;42.648;23.368;2023-02-12T11:16:53;95774.13;;;4.32;100.00
10946;BME280;5525;42.648;23.368;2023-02-12T11:19:22;95758.50;;;4.14;100.00
10946;BME280;5525;42.648;23.368;2023-02-12T11:21:49;95774.22;;;4.06;100.00
10946;BME280;5525;42.648;23.368;2023-02-12T11:24:29;95779.53;;;4.42;100.00
10946;BME280;5525;42.648;23.368;2023-02-12T11:27:12;95790.25;;;4.42;100.00
10946;BME280;5525;42.648;23.368;2023-02-12T11:29:45;95777.28;;;4.24;100.00
10946;BME280;5525;42.648;23.368;2023-02-12T11:32:17;95776.31;;;4.04;100.00
10946;BME280;5525;42.648;23.368;2023-02-12T11:35:04;95768.53;;;4.39;100.00
10946;BME280;5525;42.648;23.368;2023-02-12T11:37:32;95763.16;;;4.34;100.00
10946;BME280;5525;42.648;23.368;2023-02-12T11:40:00;95769.44;;;4.13;100.00
10946;BME280;5525;42.648;23.368;2023-02-12T11:42:32;95765.19;;;4.17;100.00
10946;BME280;5525;42.648;23.368;2023-02-12T11:45:01;95773.84;;;4.29;100.00
10946;BME280;5525;42.648;23.368;2023-02-12T11:47:31;95771.91;;;4.66;100.00
10946;BME280;5525;42.648;23.368;2023-02-12T11:50:06;95777.44;;;4.49;100.00
10946;BME280;5525;42.648;23.368;2023-02-12T11:52:35;95766.91;;;4.84;100.00
10946;BME280;5525;42.648;23.368;2023-02-12T11:55:06;95774.84;;;4.64;100.00
10946;BME280;5525;42.648;23.368;2023-02-12T11:57:34;95777.84;;;4.73;100.00
10946;BME280;5525;42.648;23.368;2023-02-12T12:00:03;95766.22;;;4.47;100.00
10946;BME280;5525;42.648;23.368;2023-02-12T12:02:36;95790.72;;;3.98;100.00
10946;BME280;5525;42.648;23.368;2023-02-12T12:05:10;95785.69;;;4.06;100.00
10946;BME280;5525;42.648;23.368;2023-02-12T12:07:40;95782.94;;;4.33;100.00
10946;BME280;5525;42.648;23.368;2023-02-12T12:10:14;95767.63;;;4.23;100.00
10946;BME280;5525;42.648;23.368;2023-02-12T12:12:48;95769.06;;;4.36;100.00
10946;BME280;5525;42.648;23.368;2023-02-12T12:15:22;95783.00;;;4.06;100.00
10946;BME280;5525;42.648;23.368;2023-02-12T12:18:18;95778.44;;;4.02;100.00
10946;BME280;5525;42.648;23.368;2023-02-12T12:21:10;95786.25;;;4.08;100.00
10946;BME280;5525;42.648;23.368;2023-02-12T12:23:41;95777.91;;;4.36;100.00
10946;BME280;5525;42.648;23.368;2023-02-12T12:26:13;95786.59;;;4.22;100.00
10946;BME280;5525;42.648;23.368;2023-02-12T12:28:45;95787.78;;;4.36;100.00
10946;BME280;5525;42.648;23.368;2023-02-12T12:31:14;95787.75;;;4.31;100.00
10946;BME280;5525;42.648;23.368;2023-02-12T12:33:46;95785.06;;;4.31;100.00
10946;BME280;5525;42.648;23.368;2023-02-12T12:36:58;95786.41;;;4.28;100.00
10946;BME280;5525;42.648;23.368;2023-02-12T12:39:33;95794.94;;;4.25;100.00
10946;BME280;5525;42.648;23.368;2023-02-12T12:42:23;95797.97;;;4.39;100.00
10946;BME280;5525;42.648;23.368;2023-02-12T12:45:09;95794.94;;;4.25;100.00
10946;BME280;5525;42.648;23.368;2023-02-12T12:47:52;95795.41;;;4.59;100.00
10946;BME280;5525;42.648;23.368;2023-02-12T12:50:31;95801.56;;;4.59;100.00
10946;BME280;5525;42.648;23.368;2023-02-12T12:53:14;95786.94;;;4.72;98.95
10946;BME280;5525;42.648;23.368;2023-02-12T12:56:08;95802.34;;;4.55;100.00
10946;BME280;5525;42.648;23.368;2023-02-12T12:58:53;95812.34;;;4.33;100.00
10946;BME280;5525;42.648;23.368;2023-02-12T13:01:51;95804.88;;;3.98;100.00
10946;BME280;5525;42.648;23.368;2023-02-12T13:04:35;95810.94;;;3.89;100.00
10946;BME280;5525;42.648;23.368;2023-02-12T13:07:28;95817.06;;;3.84;100.00
10946;BME280;5525;42.648;23.368;2023-02-12T13:10:12;95816.78;;;3.86;100.00
10946;BME280;5525;42.648;23.368;2023-02-12T13:12:54;95817.81;;;3.80;100.00
10946;BME280;5525;42.648;23.368;2023-02-12T13:15:30;95819.31;;;3.71;100.00
10946;BME280;5525;42.648;23.368;2023-02-12T13:18:07;95815.72;;;3.87;100.00
10946;BME280;5525;42.648;23.368;2023-02-12T13:20:42;95821.84;;;3.82;100.00
10946;BME280;5525;42.648;23.368;2023-02-12T13:23:17;95826.66;;;3.85;100.00
10946;BME280;5525;42.648;23.368;2023-02-12T13:25:53;95824.91;;;3.69;100.00
10946;BME280;5525;42.648;23.368;2023-02-12T13:28:28;95824.50;;;3.82;100.00